sensor_id;sensor_type;location;lat;lon;timestamp;P1;durP1;ratioP1;P2;durP2;ratioP2
1751;SDS011;873;47.696;8.068;2023-05-10T00:00:07;0.20;;;0.10;;
1751;SDS011;873;47.696;8.068;2023-05-10T00:02:34;0.20;;;0.20;;
1751;SDS011;873;47.696;8.068;2023-05-10T00:04:59;0.13;;;0.13;;
1751;SDS011;873;47.696;8.068;2023-05-10T00:07:25;0.20;;;0.20;;
1751;SDS011;873;47.696;8.068;2023-05-10T00:09:50;0.20;;;0.20;;
1751;SDS011;873;47.696;8.068;2023-05-10T00:12:16;0.20;;;0.20;;
1751;SDS011;873;47.696;8.068;2023-05-10T00:14:42;0.30;;;0.30;;
1751;SDS011;873;47.696;8.068;2023-05-10T00:17:07;0.20;;;0.20;;
1751;SDS011;873;47.696;8.068;2023-05-10T00:19:33;2.53;;;0.27;;
1751;SDS011;873;47.696;8.068;2023-05-10T00:21:58;0.67;;;0.30;;
1751;SDS011;873;47.696;8.068;2023-05-10T00:24:24;0.20;;;0.10;;
1751;SDS011;873;47.696;8.068;2023-05-10T00:26:50;0.63;;;0.20;;
1751;SDS011;873;47.696;8.068;2023-05-10T00:29:15;0.20;;;0.20;;
1751;SDS011;873;47.696;8.068;2023-05-10T00:31:41;0.37;;;0.30;;
1751;SDS011;873;47.696;8.068;2023-05-10T00:34:06;0.00;;;0.00;;
1751;SDS011;873;47.696;8.068;2023-05-10T00:36:32;0.00;;;0.00;;
1751;SDS011;873;47.696;8.068;2023-05-10T00:38:57;0.20;;;0.20;;
1751;SDS011;873;47.696;8.068;2023-05-10T00:41:23;0.13;;;0.13;;
1751;SDS011;873;47.696;8.068;2023-05-10T00:43:48;0.10;;;0.10;;
1751;SDS011;873;47.696;8.068;2023-05-10T00:46:14;0.63;;;0.20;;
1751;SDS011;873;47.696;8.068;2023-05-10T00:48:41;0.00;;;0.00;;
1751;SDS011;873;47.696;8.068;2023-05-10T00:51:07;0.10;;;0.10;;
1751;SDS011;873;47.696;8.068;2023-05-10T00:53:33;0.10;;;0.10;;
1751;SDS011;873;47.696;8.068;2023-05-10T00:55:59;1.60;;;0.37;;
1751;SDS011;873;47.696;8.068;2023-05-10T00:58:25;0.50;;;0.43;;
1751;SDS011;873;47.696;8.068;2023-05-10T01:00:53;1.07;;;0.30;;
1751;SDS011;873;47.696;8.068;2023-05-10T01:03:20;0.27;;;0.27;;
1751;SDS011;873;47.696;8.068;2023-05-10T01:05:45;0.40;;;0.37;;
1751;SDS011;873;47.696;8.068;2023-05-10T01:08:11;0.37;;;0.37;;
1751;SDS011;873;47.696;8.068;2023-05-10T01:10:37;0.20;;;0.20;;
1751;SDS011;873;47.696;8.068;2023-05-10T01:13:02;1.60;;;0.40;;
1751;SDS011;873;47.696;8.068;2023-05-10T01:15:28;0.40;;;0.40;;
1751;SDS011;873;47.696;8.068;2023-05-10T01:17:54;0.93;;;0.30;;
1751;SDS011;873;47.696;8.068;2023-05-10T01:20:20;2.03;;;0.40;;
1751;SDS011;873;47.696;8.068;2023-05-10T01:34:40;0.47;;;0.47;;
1751;SDS011;873;47.696;8.068;2023-05-10T01:37:16;0.40;;;0.37;;
1751;SDS011;873;47.696;8.068;2023-05-10T01:39:47;0.60;;;0.50;;
1751;SDS011;873;47.696;8.068;2023-05-10T01:42:17;0.70;;;0.50;;
1751;SDS011;873;47.696;8.068;2023-05-10T01:45:18;0.50;;;0.50;;
1751;SDS011;873;47.696;8.068;2023-05-10T01:47:35;2.60;;;0.50;;
1751;SDS011;873;47.696;8.068;2023-05-10T01:50:04;0.50;;;0.40;;
1751;SDS011;873;47.696;8.068;2023-05-10T01:52:32;0.57;;;0.53;;
1751;SDS011;873;47.696;8.068;2023-05-10T01:55:05;2.10;;;0.60;;
1751;SDS011;873;47.696;8.068;2023-05-10T01:57:33;0.60;;;0.60;;
1751;SDS011;873;47.696;8.068;2023-05-10T02:00:00;0.57;;;0.50;;
1751;SDS011;873;47.696;8.068;2023-05-10T02:02:28;0.57;;;0.50;;
1751;SDS011;873;47.696;8.068;2023-05-10T02:04:55;0.60;;;0.47;;
1751;SDS011;873;47.696;8.068;2023-05-10T02:07:22;0.60;;;0.60;;
1751;SDS011;873;47.696;8.068;2023-05-10T02:09:48;0.10;;;0.10;;
1751;SDS011;873;47.696;8.068;2023-05-10T02:12:14;0.20;;;0.20;;
1751;SDS011;873;47.696;8.068;2023-05-10T02:14:40;0.20;;;0.20;;
1751;SDS011;873;47.696;8.068;2023-05-10T02:17:06;0.20;;;0.20;;
1751;SDS011;873;47.696;8.068;2023-05-10T02:19:32;0.27;;;0.10;;
1751;SDS011;873;47.696;8.068;2023-05-10T02:21:59;0.27;;;0.27;;
1751;SDS011;873;47.696;8.068;2023-05-10T02:24:24;0.27;;;0.23;;
1751;SDS011;873;47.696;8.068;2023-05-10T02:26:51;0.10;;;0.10;;
1751;SDS011;873;47.696;8.068;2023-05-10T02:29:19;0.10;;;0.10;;
1751;SDS011;873;47.696;8.068;2023-05-10T02:31:45;0.33;;;0.30;;
1751;SDS011;873;47.696;8.068;2023-05-10T02:34:11;0.30;;;0.30;;
1751;SDS011;873;47.696;8.068;2023-05-10T02:36:37;0.20;;;0.20;;
1751;SDS011;873;47.696;8.068;2023-05-10T02:39:03;0.17;;;0.17;;
1751;SDS011;873;47.696;8.068;2023-05-10T02:41:30;0.57;;;0.33;;
1751;SDS011;873;47.696;8.068;2023-05-10T02:43:57;0.30;;;0.30;;
1751;SDS011;873;47.696;8.068;2023-05-10T02:46:25;0.37;;;0.30;;
1751;SDS011;873;47.696;8.068;2023-05-10T02:48:50;0.50;;;0.50;;
1751;SDS011;873;47.696;8.068;2023-05-10T02:51:16;0.30;;;0.30;;
1751;SDS011;873;47.696;8.068;2023-05-10T02:53:44;0.30;;;0.30;;
1751;SDS011;873;47.696;8.068;2023-05-10T02:56:12;0.40;;;0.40;;
1751;SDS011;873;47.696;8.068;2023-05-10T02:58:42;0.20;;;0.20;;
1751;SDS011;873;47.696;8.068;2023-05-10T03:01:07;0.90;;;0.60;;
1751;SDS011;873;47.696;8.068;2023-05-10T03:03:33;0.53;;;0.53;;
1751;SDS011;873;47.696;8.068;2023-05-10T03:05:59;0.60;;;0.60;;
1751;SDS011;873;47.696;8.068;2023-05-10T03:08:24;0.30;;;0.30;;
1751;SDS011;873;47.696;8.068;2023-05-10T03:10:55;0.90;;;0.77;;
1751;SDS011;873;47.696;8.068;2023-05-10T03:16:52;0.43;;;0.43;;
1751;SDS011;873;47.696;8.068;2023-05-10T03:19:30;1.40;;;0.50;;
1751;SDS011;873;47.696;8.068;2023-05-10T03:21:59;0.87;;;0.50;;
1751;SDS011;873;47.696;8.068;2023-05-10T03:24:25;0.60;;;0.50;;
1751;SDS011;873;47.696;8.068;2023-05-10T03:26:52;0.47;;;0.47;;
1751;SDS011;873;47.696;8.068;2023-05-10T03:29:19;0.40;;;0.30;;
1751;SDS011;873;47.696;8.068;2023-05-10T03:31:45;0.10;;;0.10;;
1751;SDS011;873;47.696;8.068;2023-05-10T03:34:11;0.30;;;0.17;;
1751;SDS011;873;47.696;8.068;2023-05-10T03:36:36;0.30;;;0.10;;
1751;SDS011;873;47.696;8.068;2023-05-10T03:39:01;0.37;;;0.20;;
1751;SDS011;873;47.696;8.068;2023-05-10T03:41:27;0.20;;;0.20;;
1751;SDS011;873;47.696;8.068;2023-05-10T03:43:53;0.10;;;0.10;;
1751;SDS011;873;47.696;8.068;2023-05-10T03:46:18;0.40;;;0.20;;
1751;SDS011;873;47.696;8.068;2023-05-10T03:48:44;0.10;;;0.10;;
1751;SDS011;873;47.696;8.068;2023-05-10T03:51:09;0.10;;;0.10;;
1751;SDS011;873;47.696;8.068;2023-05-10T03:53:35;0.10;;;0.00;;
1751;SDS011;873;47.696;8.068;2023-05-10T03:56:00;0.53;;;0.30;;
1751;SDS011;873;47.696;8.068;2023-05-10T03:58:26;0.13;;;0.13;;
1751;SDS011;873;47.696;8.068;2023-05-10T04:00:52;0.30;;;0.20;;
1751;SDS011;873;47.696;8.068;2023-05-10T04:03:17;0.43;;;0.30;;
1751;SDS011;873;47.696;8.068;2023-05-10T04:05:43;0.27;;;0.27;;
1751;SDS011;873;47.696;8.068;2023-05-10T04:08:08;0.20;;;0.20;;
1751;SDS011;873;47.696;8.068;2023-05-10T04:10:34;0.20;;;0.20;;
1751;SDS011;873;47.696;8.068;2023-05-10T04:12:59;0.33;;;0.33;;
1751;SDS011;873;47.696;8.068;2023-05-10T04:15:25;0.93;;;0.40;;
1751;SDS011;873;47.696;8.068;2023-05-10T04:17:50;0.63;;;0.40;;
1751;SDS011;873;47.696;8.068;2023-05-10T04:20:16;0.30;;;0.30;;
1751;SDS011;873;47.696;8.068;2023-05-10T04:22:42;0.30;;;0.30;;
1751;SDS011;873;47.696;8.068;2023-05-10T04:25:07;0.30;;;0.10;;
1751;SDS011;873;47.696;8.068;2023-05-10T04:27:33;0.40;;;0.37;;
1751;SDS011;873;47.696;8.068;2023-05-10T04:29:59;0.20;;;0.20;;
1751;SDS011;873;47.696;8.068;2023-05-10T04:32:24;0.20;;;0.20;;
1751;SDS011;873;47.696;8.068;2023-05-10T04:34:50;0.40;;;0.40;;
1751;SDS011;873;47.696;8.068;2023-05-10T04:37:16;0.30;;;0.27;;
1751;SDS011;873;47.696;8.068;2023-05-10T04:39:42;0.30;;;0.20;;
1751;SDS011;873;47.696;8.068;2023-05-10T04:42:07;0.40;;;0.30;;
1751;SDS011;873;47.696;8.068;2023-05-10T04:44:33;0.40;;;0.40;;
1751;SDS011;873;47.696;8.068;2023-05-10T04:46:58;0.20;;;0.20;;
1751;SDS011;873;47.696;8.068;2023-05-10T04:49:24;0.77;;;0.47;;
1751;SDS011;873;47.696;8.068;2023-05-10T04:51:49;0.27;;;0.27;;
1751;SDS011;873;47.696;8.068;2023-05-10T04:54:15;0.60;;;0.40;;
1751;SDS011;873;47.696;8.068;2023-05-10T04:56:40;0.20;;;0.20;;
1751;SDS011;873;47.696;8.068;2023-05-10T04:59:06;0.30;;;0.30;;
1751;SDS011;873;47.696;8.068;2023-05-10T05:01:32;0.40;;;0.40;;
1751;SDS011;873;47.696;8.068;2023-05-10T05:03:57;0.10;;;0.10;;
1751;SDS011;873;47.696;8.068;2023-05-10T05:06:23;0.63;;;0.30;;
1751;SDS011;873;47.696;8.068;2023-05-10T05:08:50;0.43;;;0.40;;
1751;SDS011;873;47.696;8.068;2023-05-10T05:11:16;2.63;;;0.40;;
1751;SDS011;873;47.696;8.068;2023-05-10T05:13:42;0.40;;;0.40;;
1751;SDS011;873;47.696;8.068;2023-05-10T05:16:07;0.60;;;0.30;;
1751;SDS011;873;47.696;8.068;2023-05-10T05:18:33;0.30;;;0.30;;
1751;SDS011;873;47.696;8.068;2023-05-10T05:20:59;1.53;;;0.53;;
1751;SDS011;873;47.696;8.068;2023-05-10T05:23:24;0.40;;;0.40;;
1751;SDS011;873;47.696;8.068;2023-05-10T05:25:51;0.40;;;0.33;;
1751;SDS011;873;47.696;8.068;2023-05-10T05:28:17;0.50;;;0.50;;
1751;SDS011;873;47.696;8.068;2023-05-10T05:30:43;0.30;;;0.30;;
1751;SDS011;873;47.696;8.068;2023-05-10T05:33:09;0.30;;;0.30;;
1751;SDS011;873;47.696;8.068;2023-05-10T05:35:34;0.67;;;0.33;;
1751;SDS011;873;47.696;8.068;2023-05-10T05:38:00;0.00;;;0.00;;
1751;SDS011;873;47.696;8.068;2023-05-10T05:40:26;0.00;;;0.00;;
1751;SDS011;873;47.696;8.068;2023-05-10T05:42:51;0.53;;;0.30;;
1751;SDS011;873;47.696;8.068;2023-05-10T05:45:17;0.10;;;0.10;;
1751;SDS011;873;47.696;8.068;2023-05-10T05:47:42;0.40;;;0.40;;
1751;SDS011;873;47.696;8.068;2023-05-10T05:50:08;0.20;;;0.20;;
1751;SDS011;873;47.696;8.068;2023-05-10T05:52:34;0.10;;;0.10;;
1751;SDS011;873;47.696;8.068;2023-05-10T05:55:00;0.40;;;0.10;;
1751;SDS011;873;47.696;8.068;2023-05-10T05:57:25;0.10;;;0.10;;
1751;SDS011;873;47.696;8.068;2023-05-10T05:59:51;0.10;;;0.10;;
1751;SDS011;873;47.696;8.068;2023-05-10T06:02:17;0.00;;;0.00;;
1751;SDS011;873;47.696;8.068;2023-05-10T06:04:42;0.00;;;0.00;;
1751;SDS011;873;47.696;8.068;2023-05-10T06:07:08;0.00;;;0.00;;
1751;SDS011;873;47.696;8.068;2023-05-10T06:09:33;0.00;;;0.00;;
1751;SDS011;873;47.696;8.068;2023-05-10T06:11:59;0.20;;;0.10;;
1751;SDS011;873;47.696;8.068;2023-05-10T06:14:24;0.10;;;0.10;;
1751;SDS011;873;47.696;8.068;2023-05-10T06:16:50;0.00;;;0.00;;
1751;SDS011;873;47.696;8.068;2023-05-10T06:19:15;0.00;;;0.00;;
1751;SDS011;873;47.696;8.068;2023-05-10T06:21:41;0.60;;;0.20;;
1751;SDS011;873;47.696;8.068;2023-05-10T06:24:06;0.03;;;0.03;;
1751;SDS011;873;47.696;8.068;2023-05-10T06:26:32;0.20;;;0.10;;
1751;SDS011;873;47.696;8.068;2023-05-10T06:28:58;0.10;;;0.10;;
1751;SDS011;873;47.696;8.068;2023-05-10T06:31:23;0.10;;;0.10;;
1751;SDS011;873;47.696;8.068;2023-05-10T06:33:49;0.50;;;0.30;;
1751;SDS011;873;47.696;8.068;2023-05-10T06:36:14;0.30;;;0.20;;
1751;SDS011;873;47.696;8.068;2023-05-10T06:38:40;0.27;;;0.27;;
1751;SDS011;873;47.696;8.068;2023-05-10T06:41:05;0.13;;;0.13;;
1751;SDS011;873;47.696;8.068;2023-05-10T06:43:31;0.40;;;0.40;;
1751;SDS011;873;47.696;8.068;2023-05-10T06:45:56;0.30;;;0.20;;
1751;SDS011;873;47.696;8.068;2023-05-10T06:48:22;0.50;;;0.43;;
1751;SDS011;873;47.696;8.068;2023-05-10T06:50:48;0.20;;;0.20;;
1751;SDS011;873;47.696;8.068;2023-05-10T06:53:13;0.20;;;0.20;;
1751;SDS011;873;47.696;8.068;2023-05-10T06:55:39;0.50;;;0.37;;
1751;SDS011;873;47.696;8.068;2023-05-10T06:58:04;0.37;;;0.30;;
1751;SDS011;873;47.696;8.068;2023-05-10T07:00:31;0.40;;;0.30;;
1751;SDS011;873;47.696;8.068;2023-05-10T07:02:56;0.33;;;0.23;;
1751;SDS011;873;47.696;8.068;2023-05-10T07:05:22;0.40;;;0.40;;
1751;SDS011;873;47.696;8.068;2023-05-10T07:07:48;0.57;;;0.57;;
1751;SDS011;873;47.696;8.068;2023-05-10T07:10:13;0.33;;;0.33;;
1751;SDS011;873;47.696;8.068;2023-05-10T07:12:39;1.00;;;0.50;;
1751;SDS011;873;47.696;8.068;2023-05-10T07:15:05;0.30;;;0.30;;
1751;SDS011;873;47.696;8.068;2023-05-10T07:17:31;0.70;;;0.63;;
1751;SDS011;873;47.696;8.068;2023-05-10T07:19:58;0.40;;;0.40;;
1751;SDS011;873;47.696;8.068;2023-05-10T07:22:23;0.50;;;0.50;;
1751;SDS011;873;47.696;8.068;2023-05-10T07:24:49;0.97;;;0.53;;
1751;SDS011;873;47.696;8.068;2023-05-10T07:27:15;0.40;;;0.40;;
1751;SDS011;873;47.696;8.068;2023-05-10T07:29:40;0.63;;;0.60;;
1751;SDS011;873;47.696;8.068;2023-05-10T07:32:06;0.70;;;0.50;;
1751;SDS011;873;47.696;8.068;2023-05-10T07:34:31;0.30;;;0.30;;
1751;SDS011;873;47.696;8.068;2023-05-10T07:36:58;0.60;;;0.40;;
1751;SDS011;873;47.696;8.068;2023-05-10T07:39:23;0.57;;;0.53;;
1751;SDS011;873;47.696;8.068;2023-05-10T07:41:49;0.30;;;0.30;;
1751;SDS011;873;47.696;8.068;2023-05-10T07:44:15;0.40;;;0.40;;
1751;SDS011;873;47.696;8.068;2023-05-10T07:46:43;2.73;;;0.77;;
1751;SDS011;873;47.696;8.068;2023-05-10T07:49:09;0.50;;;0.50;;
1751;SDS011;873;47.696;8.068;2023-05-10T07:51:34;0.50;;;0.50;;
1751;SDS011;873;47.696;8.068;2023-05-10T07:54:00;1.20;;;0.50;;
1751;SDS011;873;47.696;8.068;2023-05-10T07:56:26;0.47;;;0.43;;
1751;SDS011;873;47.696;8.068;2023-05-10T07:58:55;0.90;;;0.40;;
1751;SDS011;873;47.696;8.068;2023-05-10T08:01:21;0.53;;;0.50;;
1751;SDS011;873;47.696;8.068;2023-05-10T08:03:47;0.90;;;0.50;;
1751;SDS011;873;47.696;8.068;2023-05-10T08:06:13;0.30;;;0.30;;
1751;SDS011;873;47.696;8.068;2023-05-10T08:08:40;0.50;;;0.33;;
1751;SDS011;873;47.696;8.068;2023-05-10T08:11:06;0.73;;;0.50;;
1751;SDS011;873;47.696;8.068;2023-05-10T08:13:31;0.30;;;0.30;;
1751;SDS011;873;47.696;8.068;2023-05-10T08:15:57;0.90;;;0.40;;
1751;SDS011;873;47.696;8.068;2023-05-10T08:18:22;1.57;;;0.60;;
1751;SDS011;873;47.696;8.068;2023-05-10T08:20:48;0.53;;;0.43;;
1751;SDS011;873;47.696;8.068;2023-05-10T08:23:13;0.27;;;0.27;;
1751;SDS011;873;47.696;8.068;2023-05-10T08:25:38;0.20;;;0.20;;
1751;SDS011;873;47.696;8.068;2023-05-10T08:28:04;0.33;;;0.33;;
1751;SDS011;873;47.696;8.068;2023-05-10T08:30:29;0.83;;;0.50;;
1751;SDS011;873;47.696;8.068;2023-05-10T08:32:55;2.47;;;0.63;;
1751;SDS011;873;47.696;8.068;2023-05-10T08:35:21;0.80;;;0.30;;
1751;SDS011;873;47.696;8.068;2023-05-10T08:37:46;0.53;;;0.50;;
1751;SDS011;873;47.696;8.068;2023-05-10T08:40:11;0.77;;;0.77;;
1751;SDS011;873;47.696;8.068;2023-05-10T08:42:39;0.50;;;0.50;;
1751;SDS011;873;47.696;8.068;2023-05-10T08:45:07;0.57;;;0.57;;
1751;SDS011;873;47.696;8.068;2023-05-10T08:47:34;2.93;;;0.57;;
1751;SDS011;873;47.696;8.068;2023-05-10T08:50:02;4.67;;;0.87;;
1751;SDS011;873;47.696;8.068;2023-05-10T08:52:28;2.13;;;0.80;;
1751;SDS011;873;47.696;8.068;2023-05-10T08:54:55;2.63;;;1.50;;
1751;SDS011;873;47.696;8.068;2023-05-10T08:57:21;0.80;;;0.33;;
1751;SDS011;873;47.696;8.068;2023-05-10T08:59:46;0.40;;;0.40;;
1751;SDS011;873;47.696;8.068;2023-05-10T09:02:12;0.60;;;0.60;;
1751;SDS011;873;47.696;8.068;2023-05-10T09:04:38;1.63;;;0.40;;
1751;SDS011;873;47.696;8.068;2023-05-10T09:07:04;0.60;;;0.47;;
1751;SDS011;873;47.696;8.068;2023-05-10T09:09:29;1.03;;;0.50;;
1751;SDS011;873;47.696;8.068;2023-05-10T09:11:56;3.63;;;0.50;;
1751;SDS011;873;47.696;8.068;2023-05-10T09:14:22;0.60;;;0.50;;
1751;SDS011;873;47.696;8.068;2023-05-10T09:16:49;0.60;;;0.30;;
1751;SDS011;873;47.696;8.068;2023-05-10T09:19:15;0.40;;;0.40;;
1751;SDS011;873;47.696;8.068;2023-05-10T09:21:40;1.40;;;0.80;;
1751;SDS011;873;47.696;8.068;2023-05-10T09:24:06;0.50;;;0.43;;
1751;SDS011;873;47.696;8.068;2023-05-10T09:26:33;0.50;;;0.50;;
1751;SDS011;873;47.696;8.068;2023-05-10T09:29:00;0.43;;;0.37;;
1751;SDS011;873;47.696;8.068;2023-05-10T09:34:17;0.40;;;0.40;;
1751;SDS011;873;47.696;8.068;2023-05-10T09:36:52;3.03;;;0.50;;
1751;SDS011;873;47.696;8.068;2023-05-10T09:39:18;0.83;;;0.43;;
1751;SDS011;873;47.696;8.068;2023-05-10T09:41:44;1.27;;;0.57;;
1751;SDS011;873;47.696;8.068;2023-05-10T09:44:09;0.20;;;0.20;;
1751;SDS011;873;47.696;8.068;2023-05-10T09:46:35;0.30;;;0.30;;
1751;SDS011;873;47.696;8.068;2023-05-10T09:49:01;0.40;;;0.40;;
1751;SDS011;873;47.696;8.068;2023-05-10T09:51:27;1.03;;;0.47;;
1751;SDS011;873;47.696;8.068;2023-05-10T09:54:09;1.57;;;0.40;;
1751;SDS011;873;47.696;8.068;2023-05-10T09:56:36;1.73;;;0.47;;
1751;SDS011;873;47.696;8.068;2023-05-10T09:59:03;0.20;;;0.20;;
1751;SDS011;873;47.696;8.068;2023-05-10T10:01:29;0.93;;;0.87;;
1751;SDS011;873;47.696;8.068;2023-05-10T10:03:55;1.60;;;0.33;;
1751;SDS011;873;47.696;8.068;2023-05-10T10:06:27;1.10;;;0.37;;
1751;SDS011;873;47.696;8.068;2023-05-10T10:08:53;0.37;;;0.20;;
1751;SDS011;873;47.696;8.068;2023-05-10T10:11:19;0.27;;;0.20;;
1751;SDS011;873;47.696;8.068;2023-05-10T10:13:45;1.30;;;0.60;;
1751;SDS011;873;47.696;8.068;2023-05-10T10:16:11;0.60;;;0.23;;
1751;SDS011;873;47.696;8.068;2023-05-10T10:18:37;0.57;;;0.30;;
1751;SDS011;873;47.696;8.068;2023-05-10T10:21:05;0.40;;;0.30;;
1751;SDS011;873;47.696;8.068;2023-05-10T10:23:32;0.17;;;0.10;;
1751;SDS011;873;47.696;8.068;2023-05-10T10:25:57;0.80;;;0.30;;
1751;SDS011;873;47.696;8.068;2023-05-10T10:28:26;1.87;;;0.20;;
1751;SDS011;873;47.696;8.068;2023-05-10T10:33:59;0.53;;;0.30;;
1751;SDS011;873;47.696;8.068;2023-05-10T10:36:31;1.03;;;0.30;;
1751;SDS011;873;47.696;8.068;2023-05-10T10:39:00;0.20;;;0.20;;
1751;SDS011;873;47.696;8.068;2023-05-10T10:47:21;0.20;;;0.13;;
1751;SDS011;873;47.696;8.068;2023-05-10T10:49:51;0.23;;;0.10;;
1751;SDS011;873;47.696;8.068;2023-05-10T11:02:58;1.13;;;0.20;;
1751;SDS011;873;47.696;8.068;2023-05-10T11:10:50;0.13;;;0.13;;
1751;SDS011;873;47.696;8.068;2023-05-10T11:14:02;0.20;;;0.20;;
1751;SDS011;873;47.696;8.068;2023-05-10T11:16:29;0.63;;;0.30;;
1751;SDS011;873;47.696;8.068;2023-05-10T11:19:08;0.63;;;0.30;;
1751;SDS011;873;47.696;8.068;2023-05-10T11:21:44;0.63;;;0.27;;
1751;SDS011;873;47.696;8.068;2023-05-10T11:24:13;1.20;;;0.30;;
1751;SDS011;873;47.696;8.068;2023-05-10T11:26:40;0.40;;;0.23;;
1751;SDS011;873;47.696;8.068;2023-05-10T11:29:06;0.40;;;0.23;;
1751;SDS011;873;47.696;8.068;2023-05-10T11:31:31;0.83;;;0.17;;
1751;SDS011;873;47.696;8.068;2023-05-10T11:33:58;0.50;;;0.30;;
1751;SDS011;873;47.696;8.068;2023-05-10T11:36:25;0.87;;;0.57;;
1751;SDS011;873;47.696;8.068;2023-05-10T11:38:52;1.50;;;0.30;;
1751;SDS011;873;47.696;8.068;2023-05-10T11:41:19;0.20;;;0.13;;
1751;SDS011;873;47.696;8.068;2023-05-10T11:43:47;0.50;;;0.30;;
1751;SDS011;873;47.696;8.068;2023-05-10T11:46:15;0.43;;;0.30;;
1751;SDS011;873;47.696;8.068;2023-05-10T11:48:42;1.00;;;0.23;;
1751;SDS011;873;47.696;8.068;2023-05-10T11:51:08;0.20;;;0.10;;
1751;SDS011;873;47.696;8.068;2023-05-10T11:53:34;0.20;;;0.20;;
1751;SDS011;873;47.696;8.068;2023-05-10T11:56:08;0.10;;;0.10;;
1751;SDS011;873;47.696;8.068;2023-05-10T11:58:35;0.30;;;0.20;;
1751;SDS011;873;47.696;8.068;2023-05-10T12:01:03;0.20;;;0.20;;
1751;SDS011;873;47.696;8.068;2023-05-10T12:03:30;4.07;;;0.30;;
1751;SDS011;873;47.696;8.068;2023-05-10T12:05:56;0.20;;;0.20;;
1751;SDS011;873;47.696;8.068;2023-05-10T12:08:22;0.53;;;0.30;;
1751;SDS011;873;47.696;8.068;2023-05-10T12:10:49;0.67;;;0.30;;
1751;SDS011;873;47.696;8.068;2023-05-10T12:13:14;0.20;;;0.20;;
1751;SDS011;873;47.696;8.068;2023-05-10T12:15:41;0.20;;;0.20;;
1751;SDS011;873;47.696;8.068;2023-05-10T12:18:11;0.20;;;0.20;;
1751;SDS011;873;47.696;8.068;2023-05-10T12:20:37;0.90;;;0.20;;
1751;SDS011;873;47.696;8.068;2023-05-10T12:23:03;0.93;;;0.43;;
1751;SDS011;873;47.696;8.068;2023-05-10T12:25:31;0.10;;;0.10;;
1751;SDS011;873;47.696;8.068;2023-05-10T12:27:58;1.93;;;0.20;;
1751;SDS011;873;47.696;8.068;2023-05-10T12:30:26;0.30;;;0.30;;
1751;SDS011;873;47.696;8.068;2023-05-10T12:32:53;0.33;;;0.30;;
1751;SDS011;873;47.696;8.068;2023-05-10T12:35:19;0.30;;;0.30;;
1751;SDS011;873;47.696;8.068;2023-05-10T12:37:47;0.30;;;0.30;;
1751;SDS011;873;47.696;8.068;2023-05-10T12:40:13;3.23;;;0.37;;
1751;SDS011;873;47.696;8.068;2023-05-10T12:42:38;0.20;;;0.20;;
1751;SDS011;873;47.696;8.068;2023-05-10T12:45:05;0.97;;;0.50;;
1751;SDS011;873;47.696;8.068;2023-05-10T12:47:31;1.63;;;0.30;;
1751;SDS011;873;47.696;8.068;2023-05-10T12:49:57;0.20;;;0.20;;
1751;SDS011;873;47.696;8.068;2023-05-10T12:52:24;1.10;;;0.20;;
1751;SDS011;873;47.696;8.068;2023-05-10T12:54:51;0.63;;;0.40;;
1751;SDS011;873;47.696;8.068;2023-05-10T12:57:17;0.20;;;0.20;;
1751;SDS011;873;47.696;8.068;2023-05-10T12:59:43;0.10;;;0.10;;
1751;SDS011;873;47.696;8.068;2023-05-10T13:02:08;0.10;;;0.10;;
1751;SDS011;873;47.696;8.068;2023-05-10T13:04:34;0.40;;;0.23;;
1751;SDS011;873;47.696;8.068;2023-05-10T13:07:02;0.50;;;0.20;;
1751;SDS011;873;47.696;8.068;2023-05-10T13:09:27;0.30;;;0.00;;
1751;SDS011;873;47.696;8.068;2023-05-10T13:11:54;0.10;;;0.10;;
1751;SDS011;873;47.696;8.068;2023-05-10T13:14:20;0.73;;;0.23;;
1751;SDS011;873;47.696;8.068;2023-05-10T13:16:46;0.43;;;0.23;;
1751;SDS011;873;47.696;8.068;2023-05-10T13:19:13;0.30;;;0.20;;
1751;SDS011;873;47.696;8.068;2023-05-10T13:21:39;0.17;;;0.10;;
1751;SDS011;873;47.696;8.068;2023-05-10T13:24:06;0.87;;;0.33;;
1751;SDS011;873;47.696;8.068;2023-05-10T13:26:32;0.23;;;0.20;;
1751;SDS011;873;47.696;8.068;2023-05-10T13:28:58;0.20;;;0.00;;
1751;SDS011;873;47.696;8.068;2023-05-10T13:31:23;0.10;;;0.10;;
1751;SDS011;873;47.696;8.068;2023-05-10T13:33:49;0.33;;;0.33;;
1751;SDS011;873;47.696;8.068;2023-05-10T13:36:14;0.10;;;0.10;;
1751;SDS011;873;47.696;8.068;2023-05-10T13:38:40;0.10;;;0.10;;
1751;SDS011;873;47.696;8.068;2023-05-10T13:41:06;0.13;;;0.10;;
1751;SDS011;873;47.696;8.068;2023-05-10T13:43:31;0.20;;;0.00;;
1751;SDS011;873;47.696;8.068;2023-05-10T13:45:56;0.10;;;0.10;;
1751;SDS011;873;47.696;8.068;2023-05-10T13:48:22;0.30;;;0.10;;
1751;SDS011;873;47.696;8.068;2023-05-10T13:50:48;0.10;;;0.10;;
1751;SDS011;873;47.696;8.068;2023-05-10T13:53:13;0.10;;;0.10;;
1751;SDS011;873;47.696;8.068;2023-05-10T13:55:39;0.20;;;0.00;;
1751;SDS011;873;47.696;8.068;2023-05-10T13:58:06;0.10;;;0.10;;
1751;SDS011;873;47.696;8.068;2023-05-10T14:00:31;0.10;;;0.10;;
1751;SDS011;873;47.696;8.068;2023-05-10T14:02:57;0.00;;;0.00;;
1751;SDS011;873;47.696;8.068;2023-05-10T14:05:23;0.10;;;0.10;;
1751;SDS011;873;47.696;8.068;2023-05-10T14:07:49;1.17;;;0.13;;
1751;SDS011;873;47.696;8.068;2023-05-10T14:10:15;0.00;;;0.00;;
1751;SDS011;873;47.696;8.068;2023-05-10T14:12:41;0.23;;;0.00;;
1751;SDS011;873;47.696;8.068;2023-05-10T14:15:07;0.00;;;0.00;;
1751;SDS011;873;47.696;8.068;2023-05-10T14:17:33;0.10;;;0.10;;
1751;SDS011;873;47.696;8.068;2023-05-10T14:19:58;0.00;;;0.00;;
1751;SDS011;873;47.696;8.068;2023-05-10T14:22:24;0.00;;;0.00;;
1751;SDS011;873;47.696;8.068;2023-05-10T14:24:49;0.00;;;0.00;;
1751;SDS011;873;47.696;8.068;2023-05-10T14:27:15;0.40;;;0.10;;
1751;SDS011;873;47.696;8.068;2023-05-10T14:29:41;0.00;;;0.00;;
1751;SDS011;873;47.696;8.068;2023-05-10T14:32:06;0.20;;;0.13;;
1751;SDS011;873;47.696;8.068;2023-05-10T14:34:32;0.67;;;0.03;;
1751;SDS011;873;47.696;8.068;2023-05-10T14:36:57;0.00;;;0.00;;
1751;SDS011;873;47.696;8.068;2023-05-10T14:39:23;0.00;;;0.00;;
1751;SDS011;873;47.696;8.068;2023-05-10T14:41:49;0.30;;;0.10;;
1751;SDS011;873;47.696;8.068;2023-05-10T14:44:16;0.50;;;0.10;;
1751;SDS011;873;47.696;8.068;2023-05-10T14:46:41;0.30;;;0.20;;
1751;SDS011;873;47.696;8.068;2023-05-10T14:49:07;0.93;;;0.17;;
1751;SDS011;873;47.696;8.068;2023-05-10T14:51:33;1.27;;;0.20;;
1751;SDS011;873;47.696;8.068;2023-05-10T14:53:59;0.10;;;0.10;;
1751;SDS011;873;47.696;8.068;2023-05-10T14:56:24;0.00;;;0.00;;
1751;SDS011;873;47.696;8.068;2023-05-10T14:58:50;0.00;;;0.00;;
1751;SDS011;873;47.696;8.068;2023-05-10T15:01:16;0.20;;;0.10;;
1751;SDS011;873;47.696;8.068;2023-05-10T15:03:42;0.00;;;0.00;;
1751;SDS011;873;47.696;8.068;2023-05-10T15:06:08;0.10;;;0.00;;
1751;SDS011;873;47.696;8.068;2023-05-10T15:08:33;0.10;;;0.07;;
1751;SDS011;873;47.696;8.068;2023-05-10T15:10:59;0.00;;;0.00;;
1751;SDS011;873;47.696;8.068;2023-05-10T15:13:24;0.00;;;0.00;;
1751;SDS011;873;47.696;8.068;2023-05-10T15:15:50;0.00;;;0.00;;
1751;SDS011;873;47.696;8.068;2023-05-10T15:18:16;0.00;;;0.00;;
1751;SDS011;873;47.696;8.068;2023-05-10T15:20:42;0.10;;;0.10;;
1751;SDS011;873;47.696;8.068;2023-05-10T15:23:08;0.00;;;0.00;;
1751;SDS011;873;47.696;8.068;2023-05-10T15:25:33;0.00;;;0.00;;
1751;SDS011;873;47.696;8.068;2023-05-10T15:28:00;1.07;;;0.10;;
1751;SDS011;873;47.696;8.068;2023-05-10T15:30:27;0.00;;;0.00;;
1751;SDS011;873;47.696;8.068;2023-05-10T15:32:53;0.10;;;0.00;;
1751;SDS011;873;47.696;8.068;2023-05-10T15:35:19;0.37;;;0.37;;
1751;SDS011;873;47.696;8.068;2023-05-10T15:37:45;0.00;;;0.00;;
1751;SDS011;873;47.696;8.068;2023-05-10T15:40:12;0.00;;;0.00;;
1751;SDS011;873;47.696;8.068;2023-05-10T15:42:38;0.03;;;0.03;;
1751;SDS011;873;47.696;8.068;2023-05-10T15:45:03;0.00;;;0.00;;
1751;SDS011;873;47.696;8.068;2023-05-10T15:47:29;0.20;;;0.10;;
1751;SDS011;873;47.696;8.068;2023-05-10T15:49:55;0.10;;;0.00;;
1751;SDS011;873;47.696;8.068;2023-05-10T15:52:20;0.20;;;0.20;;
1751;SDS011;873;47.696;8.068;2023-05-10T15:54:47;0.10;;;0.10;;
1751;SDS011;873;47.696;8.068;2023-05-10T15:57:12;0.10;;;0.10;;
1751;SDS011;873;47.696;8.068;2023-05-10T15:59:38;0.00;;;0.00;;
1751;SDS011;873;47.696;8.068;2023-05-10T16:02:05;0.53;;;0.20;;
1751;SDS011;873;47.696;8.068;2023-05-10T16:04:31;0.57;;;0.10;;
1751;SDS011;873;47.696;8.068;2023-05-10T16:06:56;0.23;;;0.20;;